Big Bear Station Historical Data
Daily Summary for March 28, 2019 Units:  English    Metric   Both
Next Day »
Daily Weekly Monthly Yearly Custom
  High: Low: Average:
Temperature: 51.1 °F 32.7 °F 39.6 °F
Dew Point: 39.2 °F 13.6 °F 30.7 °F
Humidity: 96% 27% 73%
Wind Speed: 7.3mph 0.0mph 2.7mph
Wind Gust: -999.0mph - -
Wind- - WNW
Pressure: 23.56 in 23.51 in -
Precipitation: 0.00 in    
Historical Graphs
 
 
Tabular Data for March 28, 2019
Time Temperature Dew Point Pressure Wind Wind Speed Wind Gust Humidity Rainfall Rate (Hourly)
00:05 35.8 °F 29.0 °F 23.52 in Calm   -999.0 mph 76% 0.00 in
00:21 35.2 °F 30.6 °F 23.52 in NW 2.7 mph -999.0 mph 83% 0.00 in
00:36 34.9 °F 31.1 °F 23.52 in WNW 2.2 mph -999.0 mph 86% 0.00 in
00:51 34.9 °F 32.0 °F 23.52 in NNW 3.7 mph -999.0 mph 89% 0.00 in
01:06 34.7 °F 31.5 °F 23.52 in WSW 1.1 mph -999.0 mph 88% 0.00 in
01:21 34.7 °F 31.2 °F 23.52 in NNW 7.3 mph -999.0 mph 87% 0.00 in
01:37 34.7 °F 31.2 °F 23.52 in NNW 1.7 mph -999.0 mph 87% 0.00 in
01:53 34.3 °F 31.1 °F 23.52 in NW 2.7 mph -999.0 mph 88% 0.00 in
02:08 34.5 °F 30.7 °F 23.52 in NW 3.7 mph -999.0 mph 86% 0.00 in
02:23 34.3 °F 30.8 °F 23.52 in NW 2.7 mph -999.0 mph 87% 0.00 in
02:39 34.2 °F 30.2 °F 23.52 in WNW 2.7 mph -999.0 mph 85% 0.00 in
02:54 34.7 °F 29.8 °F 23.52 in NW 3.7 mph -999.0 mph 82% 0.00 in
03:09 34.7 °F 29.5 °F 23.51 in WNW 1.1 mph -999.0 mph 81% 0.00 in
03:25 34.7 °F 28.9 °F 23.51 in WNW 3.7 mph -999.0 mph 79% 0.00 in
03:40 34.7 °F 28.9 °F 23.51 in NW 3.2 mph -999.0 mph 79% 0.00 in
03:55 34.7 °F 28.2 °F 23.51 in WNW 2.7 mph -999.0 mph 77% 0.00 in
04:10 34.5 °F 28.7 °F 23.51 in NW 3.7 mph -999.0 mph 79% 0.00 in
04:26 34.2 °F 28.4 °F 23.51 in WNW 1.1 mph -999.0 mph 79% 0.00 in
04:41 34.0 °F 28.2 °F 23.51 in NNW 3.7 mph -999.0 mph 79% 0.00 in
04:56 34.0 °F 28.5 °F 23.51 in NW 1.7 mph -999.0 mph 80% 0.00 in
05:11 34.0 °F 28.2 °F 23.51 in NW 4.2 mph -999.0 mph 79% 0.00 in
05:26 33.8 °F 28.6 °F 23.51 in West 2.2 mph -999.0 mph 81% 0.00 in
05:42 34.3 °F 28.8 °F 23.52 in South 2.2 mph -999.0 mph 80% 0.00 in
05:57 34.0 °F 28.8 °F 23.52 in NW 4.7 mph -999.0 mph 81% 0.00 in
06:12 33.6 °F 28.7 °F 23.52 in NNW 1.1 mph -999.0 mph 82% 0.00 in
06:27 33.1 °F 28.8 °F 23.52 in WNW 2.2 mph -999.0 mph 84% 0.00 in
06:43 32.9 °F 28.3 °F 23.52 in NNE 1.7 mph -999.0 mph 83% 0.00 in
06:58 32.7 °F 28.4 °F 23.52 in NW 3.7 mph -999.0 mph 84% 0.00 in
07:13 32.7 °F 29.0 °F 23.53 in NW 1.7 mph -999.0 mph 86% 0.00 in
07:28 33.1 °F 29.4 °F 23.53 in NW 1.1 mph -999.0 mph 86% 0.00 in
07:44 33.3 °F 29.6 °F 23.53 in Calm   -999.0 mph 86% 0.00 in
07:59 33.6 °F 29.9 °F 23.53 in NW 2.7 mph -999.0 mph 86% 0.00 in
08:14 34.3 °F 30.5 °F 23.53 in NW 1.7 mph -999.0 mph 86% 0.00 in
08:29 35.6 °F 30.6 °F 23.53 in Calm   -999.0 mph 82% 0.00 in
08:45 36.9 °F 28.7 °F 23.53 in NNW 3.2 mph -999.0 mph 72% 0.00 in
09:00 37.6 °F 28.0 °F 23.53 in NW 2.7 mph -999.0 mph 68% 0.00 in
09:15 38.7 °F 28.7 °F 23.53 in NW 3.7 mph -999.0 mph 67% 0.00 in
09:31 40.1 °F 26.5 °F 23.53 in NW 4.2 mph -999.0 mph 58% 0.00 in
09:46 41.2 °F 25.8 °F 23.53 in NNW 4.7 mph -999.0 mph 54% 0.00 in
10:01 41.7 °F 24.9 °F 23.54 in West 3.2 mph -999.0 mph 51% 0.00 in
10:17 43.9 °F 19.3 °F 23.55 in NW 5.8 mph -999.0 mph 37% 0.00 in
10:32 44.8 °F 13.6 °F 23.55 in ESE 3.7 mph -999.0 mph 28% 0.00 in
10:47 46.6 °F 14.4 °F 23.55 in North 6.3 mph -999.0 mph 27% 0.00 in
11:02 46.8 °F 20.6 °F 23.55 in NW 5.8 mph -999.0 mph 35% 0.00 in
11:17 47.3 °F 24.8 °F 23.55 in WSW 2.7 mph -999.0 mph 41% 0.00 in
11:33 46.8 °F 27.1 °F 23.56 in NE 4.2 mph -999.0 mph 46% 0.00 in
11:48 46.8 °F 26.6 °F 23.56 in NW 3.7 mph -999.0 mph 45% 0.00 in
12:03 46.8 °F 26.6 °F 23.56 in WSW 1.7 mph -999.0 mph 45% 0.00 in
12:19 47.7 °F 27.4 °F 23.56 in WNW 2.7 mph -999.0 mph 45% 0.00 in
12:34 47.3 °F 30.6 °F 23.56 in NNW 4.7 mph -999.0 mph 52% 0.00 in
12:49 49.1 °F 30.8 °F 23.56 in NW 7.3 mph -999.0 mph 49% 0.00 in
13:04 48.9 °F 29.0 °F 23.56 in NW 5.8 mph -999.0 mph 46% 0.00 in
13:19 48.6 °F 27.7 °F 23.56 in NW 4.7 mph -999.0 mph 44% 0.00 in
13:35 50.0 °F 27.8 °F 23.56 in NW 5.3 mph -999.0 mph 42% 0.00 in
13:50 49.8 °F 28.8 °F 23.56 in NNW 6.3 mph -999.0 mph 44% 0.00 in
14:05 49.8 °F 30.4 °F 23.56 in West 4.2 mph -999.0 mph 47% 0.00 in
14:21 49.1 °F 32.2 °F 23.56 in NW 4.2 mph -999.0 mph 52% 0.00 in
14:36 50.4 °F 32.0 °F 23.56 in SSW 2.2 mph -999.0 mph 49% 0.00 in
14:51 50.5 °F 33.0 °F 23.55 in NW 4.7 mph -999.0 mph 51% 0.00 in
15:07 49.5 °F 33.5 °F 23.55 in WNW 5.3 mph -999.0 mph 54% 0.00 in
15:22 51.1 °F 33.1 °F 23.55 in Calm   -999.0 mph 50% 0.00 in
15:37 50.2 °F 33.7 °F 23.54 in WNW 5.3 mph -999.0 mph 53% 0.00 in
15:52 49.8 °F 35.2 °F 23.54 in North 4.2 mph -999.0 mph 57% 0.00 in
16:08 48.2 °F 35.8 °F 23.54 in NW 3.7 mph -999.0 mph 62% 0.00 in
16:23 47.3 °F 35.7 °F 23.54 in SSW 2.7 mph -999.0 mph 64% 0.00 in
16:39 47.3 °F 36.9 °F 23.54 in NW 6.3 mph -999.0 mph 67% 0.00 in
16:55 46.4 °F 37.5 °F 23.54 in NW 4.2 mph -999.0 mph 71% 0.00 in
17:10 50.4 °F 38.7 °F 23.54 in NW 3.2 mph -999.0 mph 64% 0.00 in
17:25 48.9 °F 39.2 °F 23.54 in WNW 4.2 mph -999.0 mph 69% 0.00 in
17:40 48.0 °F 38.7 °F 23.55 in WNW 3.7 mph -999.0 mph 70% 0.00 in
17:55 44.4 °F 38.3 °F 23.55 in West 3.7 mph -999.0 mph 79% 0.00 in
18:11 42.4 °F 37.6 °F 23.55 in NNW 2.7 mph -999.0 mph 83% 0.00 in
18:26 40.8 °F 36.9 °F 23.55 in NW 1.1 mph -999.0 mph 86% 0.00 in
18:41 39.7 °F 36.4 °F 23.54 in NW 2.7 mph -999.0 mph 88% 0.00 in
18:56 38.8 °F 35.8 °F 23.54 in Calm   -999.0 mph 89% 0.00 in
19:11 37.9 °F 35.5 °F 23.54 in Calm   -999.0 mph 91% 0.00 in
19:27 37.4 °F 35.6 °F 23.54 in ESE 1.1 mph -999.0 mph 93% 0.00 in
19:42 36.9 °F 35.1 °F 23.54 in Calm   -999.0 mph 93% 0.00 in
19:57 36.3 °F 34.2 °F 23.54 in Calm   -999.0 mph 92% 0.00 in
20:12 35.4 °F 33.3 °F 23.54 in Calm   -999.0 mph 92% 0.00 in
20:27 34.9 °F 33.1 °F 23.54 in Calm   -999.0 mph 93% 0.00 in
20:43 34.2 °F 32.4 °F 23.55 in Calm   -999.0 mph 93% 0.00 in
20:58 33.6 °F 31.8 °F 23.56 in Calm   -999.0 mph 93% 0.00 in
21:14 34.0 °F 32.7 °F 23.56 in Calm   -999.0 mph 95% 0.00 in
21:29 34.5 °F 33.2 °F 23.56 in Calm   -999.0 mph 95% 0.00 in
21:44 34.5 °F 33.5 °F 23.56 in West 3.2 mph -999.0 mph 96% 0.00 in
21:59 34.7 °F 33.7 °F 23.56 in NW 2.7 mph -999.0 mph 96% 0.00 in
22:15 34.7 °F 33.7 °F 23.56 in Calm   -999.0 mph 96% 0.00 in
22:30 34.7 °F 33.7 °F 23.55 in Calm   -999.0 mph 96% 0.00 in
22:45 34.9 °F 33.6 °F 23.55 in North 2.7 mph -999.0 mph 95% 0.00 in
23:00 34.9 °F 33.3 °F 23.56 in SW 2.2 mph -999.0 mph 94% 0.00 in
23:16 34.5 °F 33.0 °F 23.56 in Calm   -999.0 mph 94% 0.00 in
23:31 34.0 °F 31.7 °F 23.56 in Calm   -999.0 mph 91% 0.00 in
23:47 33.4 °F 31.1 °F 23.56 in Calm   -999.0 mph 91% 0.00 in
Big Bear CA Weather